sensor_id;sensor_type;location;lat;lon;timestamp;pressure;altitude;pressure_sealevel;temperature;humidity
20424;BME280;10371;49.042;8.002;2023-02-26T00:00:52;99559.44;;;-0.59;74.53
20424;BME280;10371;49.042;8.002;2023-02-26T00:01:53;99551.13;;;-0.64;74.96
20424;BME280;10371;49.042;8.002;2023-02-26T00:02:57;99549.56;;;-0.68;74.55
20424;BME280;10371;49.042;8.002;2023-02-26T00:04:00;99556.41;;;-0.69;74.83
20424;BME280;10371;49.042;8.002;2023-02-26T00:05:03;99560.75;;;-0.71;74.52
20424;BME280;10371;49.042;8.002;2023-02-26T00:06:03;99552.25;;;-0.71;74.83
20424;BME280;10371;49.042;8.002;2023-02-26T00:07:04;99549.00;;;-0.75;75.07
20424;BME280;10371;49.042;8.002;2023-02-26T00:08:05;99552.50;;;-0.77;75.18
20424;BME280;10371;49.042;8.002;2023-02-26T00:09:05;99553.56;;;-0.83;75.55
20424;BME280;10371;49.042;8.002;2023-02-26T00:10:07;99555.38;;;-0.86;75.49
20424;BME280;10371;49.042;8.002;2023-02-26T00:11:09;99555.50;;;-0.90;75.50
20424;BME280;10371;49.042;8.002;2023-02-26T00:12:10;99548.69;;;-0.89;75.94
20424;BME280;10371;49.042;8.002;2023-02-26T00:13:11;99544.56;;;-0.93;75.79
20424;BME280;10371;49.042;8.002;2023-02-26T00:14:14;99547.28;;;-0.98;76.20
20424;BME280;10371;49.042;8.002;2023-02-26T00:15:14;99545.81;;;-1.03;76.44
20424;BME280;10371;49.042;8.002;2023-02-26T00:16:31;99543.38;;;-1.06;76.37
20424;BME280;10371;49.042;8.002;2023-02-26T00:17:47;99545.09;;;-1.07;76.66
20424;BME280;10371;49.042;8.002;2023-02-26T00:18:48;99548.56;;;-1.08;76.63
20424;BME280;10371;49.042;8.002;2023-02-26T00:19:48;99547.78;;;-1.10;76.70
20424;BME280;10371;49.042;8.002;2023-02-26T00:20:49;99547.88;;;-1.13;76.91
20424;BME280;10371;49.042;8.002;2023-02-26T00:21:49;99544.75;;;-1.20;76.70
20424;BME280;10371;49.042;8.002;2023-02-26T00:22:50;99548.94;;;-1.19;76.96
20424;BME280;10371;49.042;8.002;2023-02-26T00:23:52;99548.16;;;-1.21;76.93
20424;BME280;10371;49.042;8.002;2023-02-26T00:24:52;99546.44;;;-1.20;76.89
20424;BME280;10371;49.042;8.002;2023-02-26T00:25:52;99546.44;;;-1.20;76.92
20424;BME280;10371;49.042;8.002;2023-02-26T00:26:53;99543.88;;;-1.20;76.76
20424;BME280;10371;49.042;8.002;2023-02-26T00:27:53;99544.53;;;-1.15;76.84
20424;BME280;10371;49.042;8.002;2023-02-26T00:28:55;99551.34;;;-1.14;76.38
20424;BME280;10371;49.042;8.002;2023-02-26T00:29:55;99553.69;;;-1.09;76.17
20424;BME280;10371;49.042;8.002;2023-02-26T00:30:56;99549.38;;;-1.07;75.94
20424;BME280;10371;49.042;8.002;2023-02-26T00:31:56;99548.44;;;-1.05;75.57
20424;BME280;10371;49.042;8.002;2023-02-26T00:32:57;99550.81;;;-1.00;75.27
20424;BME280;10371;49.042;8.002;2023-02-26T00:33:57;99549.75;;;-0.95;75.04
20424;BME280;10371;49.042;8.002;2023-02-26T00:34:58;99549.75;;;-0.95;75.08
20424;BME280;10371;49.042;8.002;2023-02-26T00:36:13;99547.22;;;-0.95;75.07
20424;BME280;10371;49.042;8.002;2023-02-26T00:38:31;99550.59;;;-0.94;75.35
20424;BME280;10371;49.042;8.002;2023-02-26T00:39:46;99551.28;;;-0.91;75.04
20424;BME280;10371;49.042;8.002;2023-02-26T00:40:50;99547.84;;;-0.90;74.93
20424;BME280;10371;49.042;8.002;2023-02-26T00:41:53;99546.16;;;-0.89;74.64
20424;BME280;10371;49.042;8.002;2023-02-26T00:42:53;99545.38;;;-0.91;74.64
20424;BME280;10371;49.042;8.002;2023-02-26T00:43:54;99554.50;;;-0.85;74.79
20424;BME280;10371;49.042;8.002;2023-02-26T00:44:55;99555.34;;;-0.85;74.97
20424;BME280;10371;49.042;8.002;2023-02-26T00:46:34;99556.16;;;-0.84;74.82
20424;BME280;10371;49.042;8.002;2023-02-26T00:47:44;99552.00;;;-0.87;74.53
20424;BME280;10371;49.042;8.002;2023-02-26T00:51:29;99558.78;;;-0.86;74.66
20424;BME280;10371;49.042;8.002;2023-02-26T00:52:51;99557.19;;;-0.88;74.79
20424;BME280;10371;49.042;8.002;2023-02-26T00:55:03;99551.41;;;-0.94;74.90
20424;BME280;10371;49.042;8.002;2023-02-26T00:56:03;99550.41;;;-0.90;75.00
20424;BME280;10371;49.042;8.002;2023-02-26T00:57:04;99559.75;;;-0.88;74.67
20424;BME280;10371;49.042;8.002;2023-02-26T00:58:05;99548.75;;;-0.91;75.08
20424;BME280;10371;49.042;8.002;2023-02-26T00:59:06;99560.50;;;-0.86;74.75
20424;BME280;10371;49.042;8.002;2023-02-26T01:00:07;99557.94;;;-0.86;74.68
20424;BME280;10371;49.042;8.002;2023-02-26T01:01:07;99559.75;;;-0.88;74.77
20424;BME280;10371;49.042;8.002;2023-02-26T01:02:07;99557.31;;;-0.92;75.01
20424;BME280;10371;49.042;8.002;2023-02-26T01:03:08;99558.06;;;-0.90;74.94
20424;BME280;10371;49.042;8.002;2023-02-26T01:04:10;99557.22;;;-0.90;74.95
20424;BME280;10371;49.042;8.002;2023-02-26T01:05:12;99560.72;;;-0.93;74.73
20424;BME280;10371;49.042;8.002;2023-02-26T01:06:14;99563.16;;;-0.90;75.23
20424;BME280;10371;49.042;8.002;2023-02-26T01:07:19;99551.28;;;-0.91;75.22
20424;BME280;10371;49.042;8.002;2023-02-26T01:08:40;99553.91;;;-0.92;74.94
20424;BME280;10371;49.042;8.002;2023-02-26T01:09:42;99547.91;;;-0.91;74.97
20424;BME280;10371;49.042;8.002;2023-02-26T01:10:42;99553.72;;;-0.87;74.70
20424;BME280;10371;49.042;8.002;2023-02-26T01:11:43;99557.06;;;-0.85;74.51
20424;BME280;10371;49.042;8.002;2023-02-26T01:12:43;99556.28;;;-0.87;74.54
20424;BME280;10371;49.042;8.002;2023-02-26T01:13:44;99551.19;;;-0.87;74.43
20424;BME280;10371;49.042;8.002;2023-02-26T01:14:44;99552.94;;;-0.90;74.29
20424;BME280;10371;49.042;8.002;2023-02-26T01:15:49;99552.75;;;-0.83;74.35
20424;BME280;10371;49.042;8.002;2023-02-26T01:16:56;99554.41;;;-0.82;74.09
20424;BME280;10371;49.042;8.002;2023-02-26T01:19:24;99556.06;;;-0.81;74.34
20424;BME280;10371;49.042;8.002;2023-02-26T01:20:37;99554.50;;;-0.85;74.07
20424;BME280;10371;49.042;8.002;2023-02-26T01:21:45;99550.19;;;-0.83;74.27
20424;BME280;10371;49.042;8.002;2023-02-26T01:22:55;99549.31;;;-0.84;74.28
20424;BME280;10371;49.042;8.002;2023-02-26T01:23:56;99549.41;;;-0.85;74.30
20424;BME280;10371;49.042;8.002;2023-02-26T01:25:13;99552.84;;;-0.86;74.20
20424;BME280;10371;49.042;8.002;2023-02-26T01:26:22;99552.84;;;-0.86;73.96
20424;BME280;10371;49.042;8.002;2023-02-26T01:27:22;99550.28;;;-0.86;73.94
20424;BME280;10371;49.042;8.002;2023-02-26T01:28:24;99544.41;;;-0.88;74.33
20424;BME280;10371;49.042;8.002;2023-02-26T01:29:24;99547.00;;;-0.90;74.19
20424;BME280;10371;49.042;8.002;2023-02-26T01:30:25;99546.91;;;-0.87;73.97
20424;BME280;10371;49.042;8.002;2023-02-26T01:31:44;99541.97;;;-0.92;74.16
20424;BME280;10371;49.042;8.002;2023-02-26T01:33:11;99550.47;;;-0.91;74.16
20424;BME280;10371;49.042;8.002;2023-02-26T01:36:30;99547.00;;;-0.90;74.57
20424;BME280;10371;49.042;8.002;2023-02-26T01:39:02;99554.63;;;-0.88;74.21
20424;BME280;10371;49.042;8.002;2023-02-26T01:42:24;99546.19;;;-0.91;74.70
20424;BME280;10371;49.042;8.002;2023-02-26T01:43:43;99546.31;;;-0.94;74.96
20424;BME280;10371;49.042;8.002;2023-02-26T01:44:56;99552.13;;;-0.90;74.79
20424;BME280;10371;49.042;8.002;2023-02-26T01:46:14;99547.91;;;-0.91;74.85
20424;BME280;10371;49.042;8.002;2023-02-26T01:48:44;99552.06;;;-0.88;74.81
20424;BME280;10371;49.042;8.002;2023-02-26T01:49:48;99547.91;;;-0.91;75.29
20424;BME280;10371;49.042;8.002;2023-02-26T01:50:48;99545.28;;;-0.90;74.75
20424;BME280;10371;49.042;8.002;2023-02-26T01:51:57;99541.91;;;-0.90;75.02
20424;BME280;10371;49.042;8.002;2023-02-26T01:54:01;99546.06;;;-0.87;75.08
20424;BME280;10371;49.042;8.002;2023-02-26T01:55:01;99557.22;;;-0.90;75.02
20424;BME280;10371;49.042;8.002;2023-02-26T01:56:10;99551.28;;;-0.91;75.20
20424;BME280;10371;49.042;8.002;2023-02-26T01:57:16;99553.84;;;-0.91;75.24
20424;BME280;10371;49.042;8.002;2023-02-26T01:58:18;99553.97;;;-0.94;75.47
20424;BME280;10371;49.042;8.002;2023-02-26T01:59:20;99555.63;;;-0.93;75.30
20424;BME280;10371;49.042;8.002;2023-02-26T02:00:23;99552.31;;;-0.95;75.16
20424;BME280;10371;49.042;8.002;2023-02-26T02:01:23;99552.34;;;-0.96;75.32
20424;BME280;10371;49.042;8.002;2023-02-26T02:02:24;99555.69;;;-0.94;75.32
20424;BME280;10371;49.042;8.002;2023-02-26T02:03:26;99548.97;;;-0.97;75.67
20424;BME280;10371;49.042;8.002;2023-02-26T02:04:27;99552.34;;;-0.96;75.77
20424;BME280;10371;49.042;8.002;2023-02-26T02:05:31;99557.63;;;-1.01;75.84
20424;BME280;10371;49.042;8.002;2023-02-26T02:06:33;99559.31;;;-1.00;75.72
20424;BME280;10371;49.042;8.002;2023-02-26T02:07:34;99558.41;;;-0.99;76.41
20424;BME280;10371;49.042;8.002;2023-02-26T02:08:35;99560.31;;;-1.04;76.28
20424;BME280;10371;49.042;8.002;2023-02-26T02:09:35;99561.38;;;-1.09;76.08
20424;BME280;10371;49.042;8.002;2023-02-26T02:10:40;99560.66;;;-1.13;76.30
20424;BME280;10371;49.042;8.002;2023-02-26T02:13:39;99563.44;;;-1.19;76.22
20424;BME280;10371;49.042;8.002;2023-02-26T02:16:35;99567.16;;;-1.28;76.79
20424;BME280;10371;49.042;8.002;2023-02-26T02:20:15;99560.59;;;-1.35;77.02
20424;BME280;10371;49.042;8.002;2023-02-26T02:23:52;99566.66;;;-1.38;76.93
20424;BME280;10371;49.042;8.002;2023-02-26T02:27:12;99572.53;;;-1.36;76.58
20424;BME280;10371;49.042;8.002;2023-02-26T02:31:21;99579.06;;;-1.28;76.90
20424;BME280;10371;49.042;8.002;2023-02-26T02:32:28;99572.03;;;-1.22;76.73
20424;BME280;10371;49.042;8.002;2023-02-26T02:33:35;99564.97;;;-1.15;76.59
20424;BME280;10371;49.042;8.002;2023-02-26T02:34:44;99572.59;;;-1.14;76.92
20424;BME280;10371;49.042;8.002;2023-02-26T02:35:53;99573.91;;;-1.03;76.46
20424;BME280;10371;49.042;8.002;2023-02-26T02:37:02;99572.84;;;-0.98;76.21
20424;BME280;10371;49.042;8.002;2023-02-26T02:38:18;99570.78;;;-0.88;75.96
20424;BME280;10371;49.042;8.002;2023-02-26T02:39:25;99573.09;;;-0.82;75.92
20424;BME280;10371;49.042;8.002;2023-02-26T02:40:34;99569.59;;;-0.79;75.90
20424;BME280;10371;49.042;8.002;2023-02-26T02:41:45;99574.34;;;-0.70;75.84
20424;BME280;10371;49.042;8.002;2023-02-26T02:43:51;99569.03;;;-0.64;75.49
20424;BME280;10371;49.042;8.002;2023-02-26T02:45:05;99568.78;;;-0.58;74.70
20424;BME280;10371;49.042;8.002;2023-02-26T02:46:10;99566.16;;;-0.56;74.81
20424;BME280;10371;49.042;8.002;2023-02-26T02:47:14;99563.31;;;-0.49;74.27
20424;BME280;10371;49.042;8.002;2023-02-26T02:48:37;99549.63;;;-0.48;74.49
20424;BME280;10371;49.042;8.002;2023-02-26T02:50:50;99566.41;;;-0.40;73.92
20424;BME280;10371;49.042;8.002;2023-02-26T02:52:18;99572.34;;;-0.40;73.89
20424;BME280;10371;49.042;8.002;2023-02-26T02:53:29;99566.41;;;-0.40;74.35
20424;BME280;10371;49.042;8.002;2023-02-26T02:54:39;99565.56;;;-0.41;74.08
20424;BME280;10371;49.042;8.002;2023-02-26T02:55:49;99575.84;;;-0.42;74.31
20424;BME280;10371;49.042;8.002;2023-02-26T02:56:59;99573.28;;;-0.42;74.19
20424;BME280;10371;49.042;8.002;2023-02-26T02:58:04;99568.94;;;-0.40;74.29
20424;BME280;10371;49.042;8.002;2023-02-26T02:59:31;99571.38;;;-0.37;74.26
20424;BME280;10371;49.042;8.002;2023-02-26T03:00:35;99575.53;;;-0.35;74.26
20424;BME280;10371;49.042;8.002;2023-02-26T03:01:39;99580.53;;;-0.32;74.20
20424;BME280;10371;49.042;8.002;2023-02-26T03:04:11;99567.81;;;-0.33;73.85
20424;BME280;10371;49.042;8.002;2023-02-26T03:05:13;99572.94;;;-0.33;74.18
20424;BME280;10371;49.042;8.002;2023-02-26T03:06:14;99576.25;;;-0.31;73.91
20424;BME280;10371;49.042;8.002;2023-02-26T03:07:14;99578.06;;;-0.33;74.40
20424;BME280;10371;49.042;8.002;2023-02-26T03:08:19;99578.16;;;-0.36;74.08
20424;BME280;10371;49.042;8.002;2023-02-26T03:09:21;99579.06;;;-0.37;74.23
20424;BME280;10371;49.042;8.002;2023-02-26T03:10:21;99579.75;;;-0.34;74.31
20424;BME280;10371;49.042;8.002;2023-02-26T03:11:22;99580.66;;;-0.35;74.49
20424;BME280;10371;49.042;8.002;2023-02-26T03:12:25;99578.06;;;-0.33;74.25
20424;BME280;10371;49.042;8.002;2023-02-26T03:13:26;99584.81;;;-0.32;74.19
20424;BME280;10371;49.042;8.002;2023-02-26T03:14:27;99578.09;;;-0.35;74.32
20424;BME280;10371;49.042;8.002;2023-02-26T03:15:36;99588.09;;;-0.29;74.20
20424;BME280;10371;49.042;8.002;2023-02-26T03:20:51;99589.09;;;-0.33;74.33
20424;BME280;10371;49.042;8.002;2023-02-26T03:22:12;99590.94;;;-0.36;74.55
20424;BME280;10371;49.042;8.002;2023-02-26T03:23:31;99591.97;;;-0.40;74.92
20424;BME280;10371;49.042;8.002;2023-02-26T03:26:02;99592.09;;;-0.43;74.67
20424;BME280;10371;49.042;8.002;2023-02-26T03:29:07;99600.75;;;-0.48;74.84
20424;BME280;10371;49.042;8.002;2023-02-26T03:31:29;99600.03;;;-0.51;75.42
20424;BME280;10371;49.042;8.002;2023-02-26T03:32:58;99601.72;;;-0.50;75.27
20424;BME280;10371;49.042;8.002;2023-02-26T03:34:08;99612.00;;;-0.52;75.63
20424;BME280;10371;49.042;8.002;2023-02-26T03:35:26;99611.09;;;-0.51;75.30
20424;BME280;10371;49.042;8.002;2023-02-26T03:37:39;99601.78;;;-0.52;75.32
20424;BME280;10371;49.042;8.002;2023-02-26T03:38:48;99599.22;;;-0.52;75.63
20424;BME280;10371;49.042;8.002;2023-02-26T03:39:54;99611.22;;;-0.54;75.53
20424;BME280;10371;49.042;8.002;2023-02-26T03:41:02;99613.84;;;-0.55;75.62
20424;BME280;10371;49.042;8.002;2023-02-26T03:42:14;99617.28;;;-0.56;75.86
20424;BME280;10371;49.042;8.002;2023-02-26T03:43:30;99618.31;;;-0.60;75.77
20424;BME280;10371;49.042;8.002;2023-02-26T03:44:38;99626.13;;;-0.65;76.12
20424;BME280;10371;49.042;8.002;2023-02-26T03:45:41;99620.31;;;-0.69;76.15
20424;BME280;10371;49.042;8.002;2023-02-26T03:46:47;99621.31;;;-0.73;76.66
20424;BME280;10371;49.042;8.002;2023-02-26T03:47:50;99617.09;;;-0.74;76.46
20424;BME280;10371;49.042;8.002;2023-02-26T03:48:54;99618.03;;;-0.76;76.61
20424;BME280;10371;49.042;8.002;2023-02-26T03:50:04;99610.50;;;-0.79;76.70
20424;BME280;10371;49.042;8.002;2023-02-26T03:51:10;99623.28;;;-0.79;76.83
20424;BME280;10371;49.042;8.002;2023-02-26T03:52:12;99621.66;;;-0.82;77.28
20424;BME280;10371;49.042;8.002;2023-02-26T03:53:17;99614.13;;;-0.85;77.55
20424;BME280;10371;49.042;8.002;2023-02-26T03:54:27;99613.16;;;-0.82;77.11
20424;BME280;10371;49.042;8.002;2023-02-26T03:56:11;99614.16;;;-0.86;77.63
20424;BME280;10371;49.042;8.002;2023-02-26T03:57:14;99614.38;;;-0.93;77.76
20424;BME280;10371;49.042;8.002;2023-02-26T03:58:14;99616.91;;;-0.91;77.67
20424;BME280;10371;49.042;8.002;2023-02-26T03:59:16;99624.59;;;-0.93;77.96
20424;BME280;10371;49.042;8.002;2023-02-26T04:00:17;99622.16;;;-0.96;78.32
20424;BME280;10371;49.042;8.002;2023-02-26T04:01:25;99629.00;;;-0.96;78.08
20424;BME280;10371;49.042;8.002;2023-02-26T04:02:54;99621.50;;;-1.01;78.51
20424;BME280;10371;49.042;8.002;2023-02-26T04:04:00;99616.50;;;-1.04;78.62
20424;BME280;10371;49.042;8.002;2023-02-26T04:05:09;99620.78;;;-1.04;78.89
20424;BME280;10371;49.042;8.002;2023-02-26T04:06:11;99627.56;;;-1.03;78.72
20424;BME280;10371;49.042;8.002;2023-02-26T04:07:14;99623.38;;;-1.06;78.90
20424;BME280;10371;49.042;8.002;2023-02-26T04:08:15;99626.69;;;-1.02;78.74
20424;BME280;10371;49.042;8.002;2023-02-26T04:09:15;99638.63;;;-1.03;79.05
20424;BME280;10371;49.042;8.002;2023-02-26T04:10:20;99631.78;;;-1.02;78.84
20424;BME280;10371;49.042;8.002;2023-02-26T04:11:21;99619.00;;;-1.02;78.89
20424;BME280;10371;49.042;8.002;2023-02-26T04:12:26;99631.69;;;-0.99;78.93
20424;BME280;10371;49.042;8.002;2023-02-26T04:13:26;99633.41;;;-1.00;79.05
20424;BME280;10371;49.042;8.002;2023-02-26T04:14:27;99633.34;;;-0.98;78.72
20424;BME280;10371;49.042;8.002;2023-02-26T04:15:27;99634.22;;;-0.99;78.61
20424;BME280;10371;49.042;8.002;2023-02-26T04:16:28;99640.97;;;-0.97;78.74
20424;BME280;10371;49.042;8.002;2023-02-26T04:17:28;99645.13;;;-0.94;78.68
20424;BME280;10371;49.042;8.002;2023-02-26T04:18:28;99640.06;;;-0.96;78.43
20424;BME280;10371;49.042;8.002;2023-02-26T04:19:28;99643.44;;;-0.95;78.38
20424;BME280;10371;49.042;8.002;2023-02-26T04:20:29;99636.72;;;-0.98;78.67
20424;BME280;10371;49.042;8.002;2023-02-26T04:21:29;99644.34;;;-0.96;78.41
20424;BME280;10371;49.042;8.002;2023-02-26T04:22:29;99639.34;;;-0.99;78.46
20424;BME280;10371;49.042;8.002;2023-02-26T04:23:30;99643.75;;;-1.03;78.78
20424;BME280;10371;49.042;8.002;2023-02-26T04:24:30;99648.72;;;-1.00;78.85
20424;BME280;10371;49.042;8.002;2023-02-26T04:25:30;99640.41;;;-1.05;79.00
20424;BME280;10371;49.042;8.002;2023-02-26T04:26:31;99652.28;;;-1.04;78.79
20424;BME280;10371;49.042;8.002;2023-02-26T04:27:31;99651.44;;;-1.04;79.19
20424;BME280;10371;49.042;8.002;2023-02-26T04:28:31;99653.09;;;-1.03;78.90
20424;BME280;10371;49.042;8.002;2023-02-26T04:29:32;99649.72;;;-1.04;79.03
20424;BME280;10371;49.042;8.002;2023-02-26T04:30:33;99650.63;;;-1.05;79.00
20424;BME280;10371;49.042;8.002;2023-02-26T04:31:33;99658.16;;;-1.02;78.96
20424;BME280;10371;49.042;8.002;2023-02-26T04:32:33;99662.50;;;-1.04;78.88
20424;BME280;10371;49.042;8.002;2023-02-26T04:33:34;99652.28;;;-1.04;79.05
20424;BME280;10371;49.042;8.002;2023-02-26T04:34:34;99651.44;;;-1.04;79.17
20424;BME280;10371;49.042;8.002;2023-02-26T04:35:34;99653.09;;;-1.03;79.14
20424;BME280;10371;49.042;8.002;2023-02-26T04:36:35;99652.03;;;-0.98;78.95
20424;BME280;10371;49.042;8.002;2023-02-26T04:37:35;99658.06;;;-0.99;78.96
20424;BME280;10371;49.042;8.002;2023-02-26T04:38:35;99651.84;;;-0.92;79.00
20424;BME280;10371;49.042;8.002;2023-02-26T04:39:35;99656.88;;;-0.90;78.72
20424;BME280;10371;49.042;8.002;2023-02-26T04:40:36;99654.44;;;-0.93;78.63
20424;BME280;10371;49.042;8.002;2023-02-26T04:41:37;99654.44;;;-0.93;78.67
20424;BME280;10371;49.042;8.002;2023-02-26T04:42:38;99657.72;;;-0.90;78.65
20424;BME280;10371;49.042;8.002;2023-02-26T04:43:38;99662.00;;;-0.90;78.53
20424;BME280;10371;49.042;8.002;2023-02-26T04:44:38;99656.84;;;-0.88;78.48
20424;BME280;10371;49.042;8.002;2023-02-26T04:45:38;99656.00;;;-0.89;78.76
20424;BME280;10371;49.042;8.002;2023-02-26T04:46:39;99656.84;;;-0.88;78.87
20424;BME280;10371;49.042;8.002;2023-02-26T04:47:39;99661.94;;;-0.88;78.90
20424;BME280;10371;49.042;8.002;2023-02-26T04:48:39;99660.22;;;-0.88;78.90
20424;BME280;10371;49.042;8.002;2023-02-26T04:49:40;99661.94;;;-0.88;78.76
20424;BME280;10371;49.042;8.002;2023-02-26T04:50:40;99666.16;;;-0.87;79.01
20424;BME280;10371;49.042;8.002;2023-02-26T04:51:40;99669.63;;;-0.88;78.55
20424;BME280;10371;49.042;8.002;2023-02-26T04:52:40;99668.81;;;-0.91;78.68
20424;BME280;10371;49.042;8.002;2023-02-26T04:53:41;99666.31;;;-0.92;78.82
20424;BME280;10371;49.042;8.002;2023-02-26T04:54:41;99664.63;;;-0.92;79.18
20424;BME280;10371;49.042;8.002;2023-02-26T04:55:41;99666.44;;;-0.95;78.81
20424;BME280;10371;49.042;8.002;2023-02-26T04:56:42;99660.59;;;-0.99;79.37
20424;BME280;10371;49.042;8.002;2023-02-26T04:57:42;99665.69;;;-0.97;79.22
20424;BME280;10371;49.042;8.002;2023-02-26T04:58:42;99669.84;;;-0.95;79.17
20424;BME280;10371;49.042;8.002;2023-02-26T04:59:43;99663.88;;;-0.95;78.96
20424;BME280;10371;49.042;8.002;2023-02-26T05:00:47;99671.50;;;-0.94;78.93
20424;BME280;10371;49.042;8.002;2023-02-26T05:01:47;99669.06;;;-0.97;79.14
20424;BME280;10371;49.042;8.002;2023-02-26T05:02:48;99664.78;;;-0.96;79.01
20424;BME280;10371;49.042;8.002;2023-02-26T05:03:48;99666.53;;;-0.98;79.13
20424;BME280;10371;49.042;8.002;2023-02-26T05:04:48;99666.72;;;-1.03;79.08
20424;BME280;10371;49.042;8.002;2023-02-26T05:05:49;99671.72;;;-1.00;79.14
20424;BME280;10371;49.042;8.002;2023-02-26T05:06:49;99669.22;;;-1.01;78.78
20424;BME280;10371;49.042;8.002;2023-02-26T05:07:49;99670.94;;;-1.02;79.24
20424;BME280;10371;49.042;8.002;2023-02-26T05:08:52;99674.41;;;-1.03;79.12
20424;BME280;10371;49.042;8.002;2023-02-26T05:09:53;99681.03;;;-0.99;78.74
20424;BME280;10371;49.042;8.002;2023-02-26T05:10:53;99680.09;;;-0.96;78.71
20424;BME280;10371;49.042;8.002;2023-02-26T05:11:53;99674.22;;;-0.98;78.97
20424;BME280;10371;49.042;8.002;2023-02-26T05:12:53;99678.50;;;-0.99;78.70
20424;BME280;10371;49.042;8.002;2023-02-26T05:13:54;99676.03;;;-1.02;78.84
20424;BME280;10371;49.042;8.002;2023-02-26T05:14:54;99677.69;;;-1.01;79.15
20424;BME280;10371;49.042;8.002;2023-02-26T05:15:54;99681.03;;;-0.99;78.85
20424;BME280;10371;49.042;8.002;2023-02-26T05:16:55;99680.81;;;-0.93;78.44
20424;BME280;10371;49.042;8.002;2023-02-26T05:17:55;99684.31;;;-0.95;78.86
20424;BME280;10371;49.042;8.002;2023-02-26T05:18:55;99683.59;;;-0.99;78.76
20424;BME280;10371;49.042;8.002;2023-02-26T05:19:55;99687.72;;;-0.95;78.82
20424;BME280;10371;49.042;8.002;2023-02-26T05:20:56;99683.56;;;-0.97;78.70
20424;BME280;10371;49.042;8.002;2023-02-26T05:21:56;99688.56;;;-0.94;78.70
20424;BME280;10371;49.042;8.002;2023-02-26T05:22:56;99689.38;;;-0.94;79.04
20424;BME280;10371;49.042;8.002;2023-02-26T05:23:57;99688.59;;;-0.96;78.97
20424;BME280;10371;49.042;8.002;2023-02-26T05:24:57;99686.03;;;-0.96;79.27
20424;BME280;10371;49.042;8.002;2023-02-26T05:25:57;99687.66;;;-0.93;79.19
20424;BME280;10371;49.042;8.002;2023-02-26T05:26:58;99685.00;;;-0.90;79.08
20424;BME280;10371;49.042;8.002;2023-02-26T05:27:58;99692.72;;;-0.92;79.21
20424;BME280;10371;49.042;8.002;2023-02-26T05:28:59;99689.38;;;-0.94;79.58
20424;BME280;10371;49.042;8.002;2023-02-26T05:29:59;99687.66;;;-0.93;79.60
20424;BME280;10371;49.042;8.002;2023-02-26T05:31:00;99687.72;;;-0.95;79.75
20424;BME280;10371;49.042;8.002;2023-02-26T05:32:01;99690.31;;;-0.96;80.19
20424;BME280;10371;49.042;8.002;2023-02-26T05:33:02;99689.38;;;-0.94;80.13
20424;BME280;10371;49.042;8.002;2023-02-26T05:34:02;99689.38;;;-0.94;80.18
20424;BME280;10371;49.042;8.002;2023-02-26T05:35:03;99699.66;;;-0.95;80.84
20424;BME280;10371;49.042;8.002;2023-02-26T05:36:04;99700.38;;;-0.92;80.62
20424;BME280;10371;49.042;8.002;2023-02-26T05:37:06;99696.16;;;-0.93;80.64
20424;BME280;10371;49.042;8.002;2023-02-26T05:38:06;99702.94;;;-0.92;80.99
20424;BME280;10371;49.042;8.002;2023-02-26T05:39:08;99700.31;;;-0.90;80.79
20424;BME280;10371;49.042;8.002;2023-02-26T05:40:09;99701.16;;;-0.90;81.18
20424;BME280;10371;49.042;8.002;2023-02-26T05:41:10;99702.84;;;-0.88;80.58
20424;BME280;10371;49.042;8.002;2023-02-26T05:42:10;99715.66;;;-0.90;81.02
20424;BME280;10371;49.042;8.002;2023-02-26T05:43:10;99717.38;;;-0.91;81.32
20424;BME280;10371;49.042;8.002;2023-02-26T05:44:11;99699.38;;;-0.87;80.98
20424;BME280;10371;49.042;8.002;2023-02-26T05:45:11;99706.16;;;-0.86;81.10
20424;BME280;10371;49.042;8.002;2023-02-26T05:46:11;99701.72;;;-0.81;80.58
20424;BME280;10371;49.042;8.002;2023-02-26T05:47:13;99704.38;;;-0.84;80.69
20424;BME280;10371;49.042;8.002;2023-02-26T05:48:13;99704.38;;;-0.84;80.66
20424;BME280;10371;49.042;8.002;2023-02-26T05:49:13;99719.59;;;-0.81;80.89
20424;BME280;10371;49.042;8.002;2023-02-26T05:50:13;99715.44;;;-0.84;80.91
20424;BME280;10371;49.042;8.002;2023-02-26T05:51:14;99723.16;;;-0.85;81.38
20424;BME280;10371;49.042;8.002;2023-02-26T05:52:14;99720.72;;;-0.88;81.26
20424;BME280;10371;49.042;8.002;2023-02-26T05:53:15;99725.03;;;-0.91;81.57
20424;BME280;10371;49.042;8.002;2023-02-26T05:54:15;99717.53;;;-0.95;81.69
20424;BME280;10371;49.042;8.002;2023-02-26T05:55:15;99718.31;;;-0.93;81.82
20424;BME280;10371;49.042;8.002;2023-02-26T05:56:16;99718.31;;;-0.93;81.67
20424;BME280;10371;49.042;8.002;2023-02-26T05:57:16;99715.66;;;-0.90;81.75
20424;BME280;10371;49.042;8.002;2023-02-26T05:58:17;99725.94;;;-0.92;81.95
20424;BME280;10371;49.042;8.002;2023-02-26T05:59:17;99736.16;;;-0.92;81.61
20424;BME280;10371;49.042;8.002;2023-02-26T06:00:18;99731.06;;;-0.92;82.03
20424;BME280;10371;49.042;8.002;2023-02-26T06:01:18;99738.75;;;-0.93;81.77
20424;BME280;10371;49.042;8.002;2023-02-26T06:02:18;99733.78;;;-0.98;82.29
20424;BME280;10371;49.042;8.002;2023-02-26T06:03:19;99727.81;;;-0.97;82.35
20424;BME280;10371;49.042;8.002;2023-02-26T06:04:19;99735.47;;;-0.97;82.59
20424;BME280;10371;49.042;8.002;2023-02-26T06:05:19;99738.06;;;-0.98;82.64
20424;BME280;10371;49.042;8.002;2023-02-26T06:06:19;99736.47;;;-1.01;82.76
20424;BME280;10371;49.042;8.002;2023-02-26T06:07:20;99738.88;;;-0.96;82.56
20424;BME280;10371;49.042;8.002;2023-02-26T06:08:21;99739.69;;;-0.96;82.98
20424;BME280;10371;49.042;8.002;2023-02-26T06:09:21;99732.84;;;-0.95;82.93
20424;BME280;10371;49.042;8.002;2023-02-26T06:10:21;99736.31;;;-0.96;82.98
20424;BME280;10371;49.042;8.002;2023-02-26T06:11:21;99743.19;;;-0.98;83.37
20424;BME280;10371;49.042;8.002;2023-02-26T06:12:22;99740.59;;;-0.97;83.46
20424;BME280;10371;49.042;8.002;2023-02-26T06:13:22;99739.81;;;-0.99;83.59
20424;BME280;10371;49.042;8.002;2023-02-26T06:14:22;99742.44;;;-1.00;83.97
20424;BME280;10371;49.042;8.002;2023-02-26T06:15:23;99749.19;;;-0.99;84.36
20424;BME280;10371;49.042;8.002;2023-02-26T06:16:23;99752.69;;;-1.02;84.34
20424;BME280;10371;49.042;8.002;2023-02-26T06:17:23;99746.78;;;-1.04;84.31
20424;BME280;10371;49.042;8.002;2023-02-26T06:18:24;99741.94;;;-1.12;84.85
20424;BME280;10371;49.042;8.002;2023-02-26T06:19:25;99744.34;;;-1.07;84.84
20424;BME280;10371;49.042;8.002;2023-02-26T06:20:25;99743.50;;;-1.07;85.31